createdAt,value
2022-09-11T00:00:57.626Z,13.22
2022-09-11T00:03:28.507Z,12.99
2022-09-11T00:05:55.281Z,12.84
2022-09-11T00:08:22.691Z,12.88
2022-09-11T00:10:49.534Z,12.94
2022-09-11T00:13:22.724Z,12.90
2022-09-11T00:15:51.208Z,12.97
2022-09-11T00:18:21.918Z,13.12
2022-09-11T00:20:51.882Z,13.10
2022-09-11T00:23:20.561Z,12.91
2022-09-11T00:25:48.255Z,12.99
2022-09-11T00:28:18.029Z,12.87
2022-09-11T00:30:48.591Z,13.07
2022-09-11T00:33:16.171Z,12.93
2022-09-11T00:35:42.954Z,12.80
2022-09-11T00:38:13.099Z,12.87
2022-09-11T00:40:47.839Z,13.07
2022-09-11T00:43:16.801Z,13.02
2022-09-11T00:45:52.885Z,13.24
2022-09-11T00:48:22.267Z,13.24
2022-09-11T00:50:51.042Z,13.10
2022-09-11T00:53:21.474Z,13.17
2022-09-11T00:55:54.070Z,13.23
2022-09-11T00:58:26.166Z,13.53
2022-09-11T01:00:55.989Z,13.34
2022-09-11T01:03:25.546Z,13.45
2022-09-11T01:05:54.863Z,13.49
2022-09-11T01:08:22.871Z,13.24
2022-09-11T01:11:01.692Z,13.35
2022-09-11T01:13:50.343Z,13.49
2022-09-11T01:16:29.309Z,13.44
2022-09-11T01:19:24.134Z,13.53
2022-09-11T01:21:59.731Z,13.53
2022-09-11T01:24:50.992Z,13.66
2022-09-11T01:27:41.775Z,13.67
2022-09-11T01:30:18.478Z,13.49
2022-09-11T01:33:06.437Z,13.66
2022-09-11T01:35:47.407Z,13.61
2022-09-11T01:38:20.234Z,13.66
2022-09-11T01:40:51.512Z,13.56
2022-09-11T01:43:31.603Z,13.51
2022-09-11T01:46:02.833Z,13.59
2022-09-11T01:48:39.382Z,13.45
2022-09-11T01:51:12.818Z,13.52
2022-09-11T01:53:41.172Z,13.54
2022-09-11T01:56:13.736Z,13.62
2022-09-11T01:58:43.674Z,13.69
2022-09-11T02:01:17.197Z,13.59
2022-09-11T02:03:51.784Z,13.53
2022-09-11T02:06:24.935Z,13.32
2022-09-11T02:08:56.782Z,13.46
2022-09-11T02:11:23.647Z,13.42
2022-09-11T02:14:23.777Z,13.35
2022-09-11T02:17:04.702Z,13.21
2022-09-11T02:19:32.183Z,13.32
2022-09-11T02:21:59.252Z,13.32
2022-09-11T02:24:27.614Z,13.50
2022-09-11T02:27:07.607Z,13.41
2022-09-11T02:29:35.086Z,13.36
2022-09-11T02:32:03.851Z,13.60
2022-09-11T02:34:35.344Z,13.61
2022-09-11T02:37:21.401Z,13.49
2022-09-11T02:40:16.227Z,13.53
2022-09-11T02:43:02.084Z,13.55
2022-09-11T02:45:41.566Z,13.62
2022-09-11T02:48:45.849Z,13.69
2022-09-11T02:51:47.711Z,13.42
2022-09-11T02:54:32.094Z,13.64
2022-09-11T02:57:10.228Z,13.59
2022-09-11T02:59:43.106Z,13.42
2022-09-11T03:02:13.676Z,13.54
2022-09-11T03:04:40.562Z,13.28
2022-09-11T03:07:08.102Z,13.55
2022-09-11T03:09:35.127Z,13.65
2022-09-11T03:12:03.764Z,13.38
2022-09-11T03:14:31.430Z,13.65
2022-09-11T03:16:58.977Z,13.42
2022-09-11T03:19:25.833Z,13.59
2022-09-11T03:21:53.501Z,13.40
2022-09-11T03:24:20.532Z,13.52
2022-09-11T03:26:47.297Z,13.39
2022-09-11T03:29:14.292Z,13.47
2022-09-11T03:31:41.102Z,13.37
2022-09-11T03:34:09.031Z,13.24
2022-09-11T03:36:36.022Z,13.28
2022-09-11T03:39:03.239Z,13.46
2022-09-11T03:41:30.092Z,13.41
2022-09-11T03:43:56.892Z,13.58
2022-09-11T03:46:24.487Z,13.58
2022-09-11T03:48:52.657Z,13.39
2022-09-11T03:51:20.685Z,13.16
2022-09-11T03:53:48.371Z,13.49
2022-09-11T03:56:15.266Z,13.57
2022-09-11T03:58:43.558Z,13.41
2022-09-11T04:01:15.784Z,13.54
2022-09-11T04:03:43.043Z,13.54
2022-09-11T04:06:10.542Z,13.55
2022-09-11T04:08:41.336Z,13.54
2022-09-11T04:11:10.043Z,13.45
2022-09-11T04:13:39.314Z,13.58
2022-09-11T04:16:14.748Z,13.61
2022-09-11T04:18:43.092Z,13.49
2022-09-11T04:21:11.851Z,13.63
2022-09-11T04:23:40.054Z,13.50
2022-09-11T04:26:16.068Z,13.71
2022-09-11T04:28:43.315Z,13.57
2022-09-11T04:31:10.859Z,13.65
2022-09-11T04:33:38.997Z,13.51
2022-09-11T04:36:07.582Z,13.67
2022-09-11T04:38:34.551Z,13.70
2022-09-11T04:41:02.801Z,13.67
2022-09-11T04:43:35.682Z,13.49
2022-09-11T04:46:06.965Z,13.73
2022-09-11T04:48:34.154Z,13.46
2022-09-11T04:51:03.023Z,13.71
2022-09-11T04:53:30.288Z,13.53
2022-09-11T04:56:05.787Z,13.78
2022-09-11T04:58:32.643Z,13.87
2022-09-11T05:00:59.499Z,13.65
2022-09-11T05:03:26.549Z,13.57
2022-09-11T05:05:53.512Z,13.72
2022-09-11T05:08:20.297Z,13.89
2022-09-11T05:10:47.621Z,13.71
2022-09-11T05:13:14.940Z,13.82
2022-09-11T05:15:41.706Z,13.93
2022-09-11T05:18:08.664Z,13.96
2022-09-11T05:20:35.773Z,14.02
2022-09-11T05:23:03.504Z,13.95
2022-09-11T05:25:32.077Z,13.96
2022-09-11T05:27:58.823Z,13.87
2022-09-11T05:30:25.734Z,13.76
2022-09-11T05:32:56.234Z,14.02
2022-09-11T05:35:29.257Z,14.02
2022-09-11T05:37:59.002Z,14.01
2022-09-11T05:40:35.877Z,14.02
2022-09-11T05:43:02.684Z,14.05
2022-09-11T05:45:29.488Z,13.78
2022-09-11T05:47:57.088Z,13.94
2022-09-11T05:50:23.918Z,13.78
2022-09-11T05:52:51.380Z,14.05
2022-09-11T05:55:18.176Z,14.00
2022-09-11T05:57:44.929Z,13.91
2022-09-11T06:00:17.968Z,13.95
2022-09-11T06:02:45.543Z,13.96
2022-09-11T06:05:24.017Z,14.16
2022-09-11T06:07:51.322Z,14.08
2022-09-11T06:10:18.326Z,14.09
2022-09-11T06:12:45.275Z,14.26
2022-09-11T06:15:30.231Z,14.07
2022-09-11T06:17:59.804Z,14.39
2022-09-11T06:20:26.752Z,14.46
2022-09-11T06:23:12.357Z,14.35
2022-09-11T06:25:39.597Z,14.57
2022-09-11T06:28:06.420Z,14.60
2022-09-11T06:30:34.510Z,14.44
2022-09-11T06:33:01.225Z,14.79
2022-09-11T06:35:28.612Z,14.63
2022-09-11T06:37:55.425Z,14.63
2022-09-11T06:40:38.758Z,14.49
2022-09-11T06:43:06.556Z,14.43
2022-09-11T06:45:48.521Z,14.44
2022-09-11T06:48:24.291Z,14.69
2022-09-11T06:50:57.744Z,14.52
2022-09-11T06:53:35.183Z,14.75
2022-09-11T06:56:04.303Z,14.91
2022-09-11T06:58:31.677Z,14.91
2022-09-11T07:01:06.225Z,14.81
2022-09-11T07:03:33.865Z,14.82
2022-09-11T07:06:01.076Z,14.72
2022-09-11T07:08:40.709Z,14.78
2022-09-11T07:11:09.017Z,14.68
2022-09-11T07:13:38.346Z,14.67
2022-09-11T07:16:08.364Z,14.73
2022-09-11T07:18:43.435Z,14.68
2022-09-11T07:21:13.127Z,15.07
2022-09-11T07:23:43.871Z,15.04
2022-09-11T07:26:26.201Z,15.12
2022-09-11T07:29:31.113Z,15.49
2022-09-11T07:31:59.004Z,15.03
2022-09-11T07:34:38.169Z,15.42
2022-09-11T07:37:08.590Z,15.44
2022-09-11T07:39:36.052Z,15.33
2022-09-11T07:42:08.968Z,15.78
2022-09-11T07:44:40.956Z,15.40
2022-09-11T07:47:08.842Z,15.41
2022-09-11T07:49:51.435Z,15.66
2022-09-11T07:52:36.865Z,15.66
2022-09-11T07:55:07.074Z,15.79
2022-09-11T07:57:50.778Z,15.88
2022-09-11T08:00:20.839Z,16.18
2022-09-11T08:02:48.868Z,16.80
2022-09-11T08:05:16.217Z,16.74
2022-09-11T08:07:59.640Z,16.68
2022-09-11T08:10:28.456Z,16.95
2022-09-11T08:12:59.885Z,17.19
2022-09-11T08:16:16.895Z,17.51
2022-09-11T08:18:45.824Z,17.37
2022-09-11T08:21:16.135Z,17.55
2022-09-11T08:23:47.638Z,17.39
2022-09-11T08:26:29.393Z,17.03
2022-09-11T08:28:58.409Z,17.23
2022-09-11T08:31:27.209Z,16.57
2022-09-11T08:33:55.717Z,16.66
2022-09-11T08:36:24.288Z,16.59
2022-09-11T08:38:52.699Z,16.15
2022-09-11T08:41:37.766Z,16.45
2022-09-11T08:44:07.505Z,16.86
2022-09-11T08:46:38.644Z,16.85
2022-09-11T08:49:17.801Z,17.27
2022-09-11T08:51:46.838Z,17.57
2022-09-11T08:54:37.257Z,18.08
2022-09-11T08:57:26.619Z,18.16
2022-09-11T09:00:19.969Z,18.45
2022-09-11T09:03:09.802Z,18.99
2022-09-11T09:06:04.907Z,19.09
2022-09-11T09:08:41.739Z,19.23
2022-09-11T09:11:24.055Z,19.23
2022-09-11T09:34:15.630Z,18.59
2022-09-11T09:38:18.699Z,18.11
2022-09-11T09:55:40.004Z,18.19
2022-09-11T09:58:36.622Z,17.53
2022-09-11T10:01:52.467Z,17.94
2022-09-11T10:05:19.322Z,17.83
2022-09-11T10:08:13.449Z,18.15
2022-09-11T10:11:05.442Z,17.97
2022-09-11T10:13:37.181Z,17.83
2022-09-11T10:52:22.297Z,16.79
2022-09-11T10:55:49.503Z,16.84
2022-09-11T10:58:29.724Z,16.50
2022-09-11T11:01:10.154Z,16.35
2022-09-11T11:03:39.838Z,16.65
2022-09-11T11:06:45.097Z,16.82
2022-09-11T11:09:41.503Z,16.52
2022-09-11T11:12:46.050Z,16.49
2022-09-11T11:15:33.459Z,17.10
2022-09-11T11:18:27.585Z,17.32
2022-09-11T11:21:47.933Z,17.26
2022-09-11T11:24:55.516Z,16.61
2022-09-11T11:28:07.219Z,16.69
2022-09-11T11:30:52.541Z,16.59
2022-09-11T11:34:12.997Z,16.27
2022-09-11T11:36:56.721Z,16.58
2022-09-11T11:40:07.290Z,16.72
2022-09-11T11:42:40.939Z,16.21
2022-09-11T11:45:23.520Z,16.21
2022-09-11T11:48:03.870Z,16.49
2022-09-11T11:51:00.022Z,16.26
2022-09-11T11:57:03.147Z,16.33
2022-09-11T12:00:02.653Z,16.55
2022-09-11T12:02:56.578Z,16.42
2022-09-11T12:05:54.082Z,16.86
2022-09-11T12:08:44.936Z,16.73
2022-09-11T12:24:22.681Z,17.49
2022-09-11T12:28:02.140Z,18.24
2022-09-11T12:35:09.706Z,18.29
2022-09-11T12:37:57.378Z,17.97
2022-09-11T12:40:47.606Z,18.00
2022-09-11T12:43:28.417Z,18.27
2022-09-11T12:46:09.178Z,18.08
2022-09-11T12:48:41.830Z,18.29
2022-09-11T12:51:27.095Z,18.15
2022-09-11T12:54:01.120Z,17.97
2022-09-11T12:56:36.385Z,18.00
2022-09-11T12:59:10.753Z,17.71
2022-09-11T13:01:46.349Z,17.64
2022-09-11T13:04:21.754Z,17.37
2022-09-11T13:07:05.936Z,17.51
2022-09-11T13:09:47.745Z,17.06
2022-09-11T13:12:29.923Z,17.28
2022-09-11T13:15:01.214Z,16.71
2022-09-11T13:17:46.622Z,16.54
2022-09-11T13:20:14.128Z,16.87
2022-09-11T13:22:42.688Z,16.40
2022-09-11T13:34:40.786Z,16.94
2022-09-11T13:38:17.506Z,17.14
2022-09-11T13:41:23.578Z,17.91
2022-09-11T13:43:59.288Z,18.44
2022-09-11T13:46:51.434Z,18.83
2022-09-11T13:49:21.241Z,19.70
2022-09-11T13:52:00.246Z,19.42
2022-09-11T13:54:41.994Z,19.36
2022-09-11T13:57:21.586Z,19.84
2022-09-11T14:09:04.487Z,20.85
2022-09-11T14:11:33.507Z,21.01
2022-09-11T14:14:28.781Z,21.47
2022-09-11T14:16:59.362Z,21.69
2022-09-11T14:19:34.387Z,21.15
2022-09-11T14:22:36.581Z,20.97
2022-09-11T14:25:19.755Z,21.02
2022-09-11T14:27:47.138Z,21.34
2022-09-11T14:30:34.688Z,21.54
2022-09-11T14:33:27.120Z,21.82
2022-09-11T14:36:07.628Z,21.68
2022-09-11T14:38:39.394Z,21.69
2022-09-11T14:41:07.575Z,21.09
2022-09-11T14:43:53.871Z,21.13
2022-09-11T14:46:29.720Z,20.95
2022-09-11T14:48:56.645Z,20.64
2022-09-11T14:51:26.058Z,20.71
2022-09-11T14:53:53.187Z,21.09
2022-09-11T14:56:21.505Z,20.99
2022-09-11T14:58:49.049Z,20.95
2022-09-11T15:01:22.589Z,20.68
2022-09-11T15:03:50.881Z,20.59
2022-09-11T15:06:20.973Z,20.31
2022-09-11T15:09:02.171Z,19.99
2022-09-11T15:11:29.539Z,19.76
2022-09-11T15:14:15.945Z,19.46
2022-09-11T15:16:44.694Z,19.33
2022-09-11T15:19:12.302Z,18.95
2022-09-11T15:21:39.219Z,19.22
2022-09-11T15:24:06.823Z,19.03
2022-09-11T15:26:34.507Z,19.07
2022-09-11T15:29:01.420Z,18.89
2022-09-11T15:31:34.572Z,18.14
2022-09-11T15:34:16.451Z,17.97
2022-09-11T15:36:46.294Z,17.96
2022-09-11T16:20:58.499Z,15.98
2022-09-11T16:23:26.112Z,16.30
2022-09-11T16:26:01.553Z,16.13
2022-09-11T16:28:37.791Z,15.97
2022-09-11T16:31:06.762Z,16.02
2022-09-11T16:33:59.107Z,16.05
2022-09-11T16:36:29.478Z,15.59
2022-09-11T16:38:59.836Z,15.49
2022-09-11T16:41:34.181Z,15.60
2022-09-11T16:44:40.365Z,15.93
2022-09-11T16:47:22.498Z,15.96
2022-09-11T16:50:06.523Z,15.43
2022-09-11T16:52:42.660Z,15.56
2022-09-11T16:55:19.022Z,15.65
2022-09-11T16:57:50.068Z,16.04
2022-09-11T17:00:50.201Z,15.89
2022-09-11T17:03:39.438Z,15.41
2022-09-11T17:06:38.057Z,15.40
2022-09-11T17:09:08.141Z,15.52
2022-09-11T17:11:40.199Z,15.34
2022-09-11T17:14:35.151Z,15.67
2022-09-11T17:17:12.115Z,15.62
2022-09-11T17:19:56.182Z,15.23
2022-09-11T17:22:25.083Z,15.19
2022-09-11T17:24:57.897Z,15.20
2022-09-11T17:27:26.269Z,15.01
2022-09-11T17:30:03.662Z,14.96
2022-09-11T17:32:47.846Z,14.80
2022-09-11T17:38:25.394Z,15.45
2022-09-11T17:41:02.324Z,15.21
2022-09-11T17:43:39.113Z,14.85
2022-09-11T17:46:11.933Z,15.15
2022-09-11T17:48:40.839Z,14.83
2022-09-11T17:51:11.626Z,15.05
2022-09-11T17:53:41.885Z,15.30
2022-09-11T17:56:17.761Z,15.11
2022-09-11T17:58:50.917Z,14.97
2022-09-11T18:01:24.765Z,15.20
2022-09-11T18:03:53.795Z,14.98
2022-09-11T18:06:36.479Z,15.00
2022-09-11T18:09:20.446Z,15.07
2022-09-11T18:11:50.443Z,15.39
2022-09-11T18:14:27.628Z,15.08
2022-09-11T18:16:55.032Z,14.95
2022-09-11T18:19:22.884Z,15.12
2022-09-11T18:21:51.243Z,14.92
2022-09-11T18:24:22.862Z,14.84
2022-09-11T18:26:56.105Z,14.99
2022-09-11T18:29:26.661Z,14.90
2022-09-11T18:31:54.832Z,14.68
2022-09-11T18:34:31.583Z,14.85
2022-09-11T18:37:00.008Z,14.85
2022-09-11T18:39:28.115Z,14.75
2022-09-11T18:41:56.347Z,14.85
2022-09-11T18:44:25.991Z,14.75
2022-09-11T18:46:55.133Z,15.02
2022-09-11T18:49:23.398Z,14.76
2022-09-11T18:51:51.931Z,14.81
2022-09-11T18:54:22.331Z,15.16
2022-09-11T18:56:50.867Z,14.88
2022-09-11T18:59:19.677Z,14.94
2022-09-11T19:01:47.725Z,15.04
2022-09-11T19:04:17.135Z,15.10
2022-09-11T19:06:45.982Z,15.09
2022-09-11T19:09:14.875Z,14.91
2022-09-11T19:11:54.347Z,15.31
2022-09-11T19:14:21.729Z,15.22
2022-09-11T19:16:50.951Z,15.12
2022-09-11T19:19:38.772Z,14.86
2022-09-11T19:22:05.987Z,15.02
2022-09-11T19:24:34.468Z,15.03
2022-09-11T19:27:03.524Z,15.13
2022-09-11T19:29:31.558Z,15.08
2022-09-11T19:32:00.289Z,14.86
2022-09-11T19:34:29.432Z,15.11
2022-09-11T19:36:56.950Z,14.84
2022-09-11T19:39:25.673Z,14.84
2022-09-11T19:41:53.273Z,15.04
2022-09-11T19:44:28.380Z,14.77
2022-09-11T19:46:56.987Z,14.81
2022-09-11T19:49:24.624Z,14.59
2022-09-11T19:52:05.330Z,15.08
2022-09-11T19:54:34.901Z,14.98
2022-09-11T19:57:02.686Z,14.96
2022-09-11T19:59:29.660Z,14.85
2022-09-11T20:01:56.769Z,14.81
2022-09-11T20:04:24.250Z,14.68
2022-09-11T20:09:39.509Z,14.83
2022-09-11T20:12:06.758Z,14.60
2022-09-11T20:14:33.947Z,14.90
2022-09-11T20:17:01.385Z,14.78
2022-09-11T20:19:28.368Z,14.77
2022-09-11T20:21:55.214Z,14.85
2022-09-11T20:24:24.232Z,14.89
2022-09-11T20:26:53.453Z,14.96
2022-09-11T20:29:20.328Z,14.62
2022-09-11T20:31:51.226Z,14.68
2022-09-11T20:34:19.686Z,14.95
2022-09-11T20:36:52.971Z,14.88
2022-09-11T20:39:20.316Z,14.85
2022-09-11T20:41:47.328Z,14.64
2022-09-11T20:44:14.224Z,14.87
2022-09-11T20:46:41.150Z,14.94
2022-09-11T20:49:08.147Z,14.88
2022-09-11T20:51:35.160Z,14.78
2022-09-11T20:54:05.195Z,14.85
2022-09-11T20:56:32.384Z,14.69
2022-09-11T20:59:00.675Z,14.47
2022-09-11T21:01:32.736Z,14.83
2022-09-11T21:04:01.670Z,14.67
2022-09-11T21:06:35.434Z,14.76
2022-09-11T21:09:09.257Z,14.48
2022-09-11T21:11:37.506Z,14.37
2022-09-11T21:14:06.207Z,14.62
2022-09-11T21:16:35.296Z,14.49
2022-09-11T21:19:05.257Z,14.52
2022-09-11T21:21:33.000Z,14.68
2022-09-11T21:24:05.537Z,14.85
2022-09-11T21:26:34.257Z,14.76
2022-09-11T21:29:05.258Z,14.78
2022-09-11T21:31:33.030Z,14.69
2022-09-11T21:34:09.766Z,14.63
2022-09-11T21:36:40.930Z,14.41
2022-09-11T21:39:07.954Z,14.60
2022-09-11T21:41:34.879Z,14.37
2022-09-11T21:44:02.053Z,14.69
2022-09-11T21:46:36.814Z,14.63
2022-09-11T21:49:03.880Z,14.72
2022-09-11T21:51:30.746Z,14.58
2022-09-11T21:53:59.223Z,14.56
2022-09-11T21:56:31.693Z,14.51
2022-09-11T21:58:59.465Z,14.62
2022-09-11T22:01:27.330Z,14.41
2022-09-11T22:03:54.816Z,14.32
2022-09-11T22:06:26.071Z,14.60
2022-09-11T22:08:54.069Z,14.26
2022-09-11T22:11:26.979Z,14.21
2022-09-11T22:13:55.239Z,14.23
2022-09-11T22:16:23.265Z,14.26
2022-09-11T22:18:52.719Z,14.38
2022-09-11T22:21:19.511Z,14.04
2022-09-11T22:24:00.557Z,14.06
2022-09-11T22:26:30.414Z,13.83
2022-09-11T22:29:00.294Z,13.96
2022-09-11T22:31:28.459Z,13.91
2022-09-11T22:33:55.957Z,13.76
2022-09-11T22:36:25.829Z,13.91
2022-09-11T22:38:52.991Z,13.85
2022-09-11T22:41:20.167Z,13.73
2022-09-11T22:43:50.349Z,13.71
2022-09-11T22:46:20.295Z,13.37
2022-09-11T22:48:47.600Z,13.59
2022-09-11T22:51:14.686Z,13.48
2022-09-11T22:53:41.984Z,13.73
2022-09-11T22:56:09.670Z,13.66
2022-09-11T22:58:38.550Z,13.45
2022-09-11T23:03:42.538Z,13.54
2022-09-11T23:06:29.554Z,13.63
2022-09-11T23:08:56.761Z,13.72
2022-09-11T23:11:23.642Z,13.77
2022-09-11T23:13:50.652Z,13.47
2022-09-11T23:16:20.300Z,13.48
2022-09-11T23:18:47.723Z,13.64
2022-09-11T23:21:14.930Z,13.54
2022-09-11T23:23:42.970Z,13.50
2022-09-11T23:26:14.253Z,13.65
2022-09-11T23:28:42.203Z,13.68
2022-09-11T23:31:14.431Z,13.83
2022-09-11T23:33:41.751Z,13.68
2022-09-11T23:36:11.553Z,13.68
2022-09-11T23:38:39.107Z,13.65
2022-09-11T23:41:06.491Z,13.76
2022-09-11T23:43:33.360Z,13.84
2022-09-11T23:46:00.204Z,13.82
2022-09-11T23:48:27.343Z,13.80
2022-09-11T23:50:54.162Z,13.75
2022-09-11T23:53:21.147Z,13.72
2022-09-11T23:55:51.013Z,13.73
2022-09-11T23:58:18.086Z,13.71
